createdAt,value
2022-12-31T00:01:28.637Z,3.67
2022-12-31T00:03:57.044Z,3.80
2022-12-31T00:06:27.390Z,3.90
2022-12-31T00:08:56.958Z,3.90
2022-12-31T00:11:26.562Z,3.93
2022-12-31T00:13:56.455Z,3.99
2022-12-31T00:16:25.666Z,3.99
2022-12-31T00:18:56.541Z,3.74
2022-12-31T00:21:24.379Z,3.98
2022-12-31T00:23:52.968Z,4.12
2022-12-31T00:26:25.151Z,3.99
2022-12-31T00:28:54.594Z,3.93
2022-12-31T00:31:27.927Z,3.93
2022-12-31T00:33:57.008Z,4.12
2022-12-31T00:36:30.209Z,4.28
2022-12-31T00:39:01.826Z,4.42
2022-12-31T00:41:29.616Z,4.52
2022-12-31T00:43:57.206Z,4.60
2022-12-31T00:46:25.203Z,4.60
2022-12-31T00:48:53.200Z,4.51
2022-12-31T00:51:23.907Z,4.64
2022-12-31T00:53:51.390Z,4.70
2022-12-31T00:56:21.481Z,4.84
2022-12-31T00:58:50.014Z,4.82
2022-12-31T01:01:25.486Z,4.80
2022-12-31T01:03:55.718Z,4.84
2022-12-31T01:06:23.836Z,4.88
2022-12-31T01:08:53.962Z,4.97
2022-12-31T01:11:22.720Z,4.92
2022-12-31T01:14:00.905Z,4.93
2022-12-31T01:16:32.429Z,4.80
2022-12-31T01:19:02.525Z,4.89
2022-12-31T01:21:31.781Z,4.98
2022-12-31T01:24:00.240Z,4.68
2022-12-31T01:26:28.375Z,4.61
2022-12-31T01:28:56.136Z,4.57
2022-12-31T01:31:24.980Z,4.50
2022-12-31T01:33:52.998Z,4.48
2022-12-31T01:36:26.261Z,4.38
2022-12-31T01:38:55.741Z,4.43
2022-12-31T01:41:33.019Z,4.57
2022-12-31T01:44:03.435Z,4.49
2022-12-31T01:46:54.912Z,4.33
2022-12-31T01:49:54.272Z,4.38
2022-12-31T01:52:32.670Z,4.31
2022-12-31T01:55:06.099Z,4.25
2022-12-31T01:57:35.030Z,4.21
2022-12-31T02:00:04.921Z,4.04
2022-12-31T02:02:32.856Z,4.10
2022-12-31T02:05:05.702Z,4.10
2022-12-31T02:07:33.233Z,4.06
2022-12-31T02:10:01.843Z,4.06
2022-12-31T02:12:29.552Z,4.11
2022-12-31T02:14:57.337Z,4.09
2022-12-31T02:17:43.410Z,4.17
2022-12-31T02:20:29.322Z,4.19
2022-12-31T02:22:56.762Z,4.13
2022-12-31T02:25:27.299Z,4.05
2022-12-31T02:28:27.998Z,4.23
2022-12-31T02:31:16.960Z,4.13
2022-12-31T02:34:09.045Z,4.05
2022-12-31T02:36:40.753Z,4.14
2022-12-31T02:39:10.112Z,4.16
2022-12-31T02:41:49.983Z,4.20
2022-12-31T02:44:20.495Z,4.06
2022-12-31T02:47:08.216Z,4.17
2022-12-31T02:50:05.141Z,4.19
2022-12-31T02:53:06.773Z,4.35
2022-12-31T02:55:55.421Z,4.22
2022-12-31T02:59:01.526Z,4.27
2022-12-31T03:01:53.907Z,4.27
2022-12-31T03:04:32.297Z,4.25
2022-12-31T03:07:05.866Z,4.23
2022-12-31T03:09:35.349Z,4.26
2022-12-31T03:12:23.984Z,4.32
2022-12-31T03:14:51.718Z,4.32
2022-12-31T03:17:19.633Z,4.31
2022-12-31T03:20:05.907Z,4.25
2022-12-31T03:22:36.475Z,4.42
2022-12-31T03:25:25.736Z,4.40
2022-12-31T03:27:54.056Z,4.19
2022-12-31T03:30:23.349Z,4.21
2022-12-31T03:32:51.595Z,4.14
2022-12-31T03:35:20.645Z,4.03
2022-12-31T03:37:49.390Z,3.93
2022-12-31T03:40:18.345Z,3.94
2022-12-31T03:42:46.534Z,3.96
2022-12-31T03:45:14.317Z,3.97
2022-12-31T03:47:41.900Z,3.85
2022-12-31T03:50:12.395Z,3.84
2022-12-31T03:52:39.929Z,3.95
2022-12-31T03:55:08.750Z,3.88
2022-12-31T03:57:36.788Z,4.03
2022-12-31T04:00:10.878Z,4.06
2022-12-31T04:02:38.780Z,3.99
2022-12-31T04:05:06.999Z,4.02
2022-12-31T04:07:34.680Z,4.04
2022-12-31T04:10:04.392Z,3.97
2022-12-31T04:12:32.663Z,3.88
2022-12-31T04:15:00.468Z,3.73
2022-12-31T04:17:27.989Z,3.69
2022-12-31T04:19:56.366Z,3.51
2022-12-31T04:22:23.887Z,3.55
2022-12-31T04:24:51.528Z,3.76
2022-12-31T04:27:19.106Z,3.75
2022-12-31T04:29:46.773Z,3.59
2022-12-31T04:32:14.365Z,3.70
2022-12-31T04:34:43.013Z,3.68
2022-12-31T04:37:10.568Z,3.85
2022-12-31T04:39:39.253Z,3.76
2022-12-31T04:42:06.807Z,3.62
2022-12-31T04:44:35.136Z,3.72
2022-12-31T04:47:02.690Z,3.90
2022-12-31T04:49:30.428Z,3.95
2022-12-31T04:51:57.857Z,4.12
2022-12-31T04:54:25.311Z,4.11
2022-12-31T04:56:52.864Z,4.16
2022-12-31T04:59:20.498Z,4.08
2022-12-31T05:01:48.149Z,4.53
2022-12-31T05:04:15.680Z,4.25
2022-12-31T05:06:43.266Z,4.23
2022-12-31T05:09:10.985Z,4.04
2022-12-31T05:11:39.355Z,4.19
2022-12-31T05:14:06.918Z,4.18
2022-12-31T05:16:34.520Z,4.10
2022-12-31T05:19:02.162Z,4.38
2022-12-31T05:21:29.711Z,4.59
2022-12-31T05:23:57.210Z,4.29
2022-12-31T05:26:24.667Z,4.31
2022-12-31T05:28:52.380Z,4.45
2022-12-31T05:31:20.156Z,4.49
2022-12-31T05:33:48.688Z,4.48
2022-12-31T05:36:16.193Z,7.71
2022-12-31T05:38:43.772Z,5.41
2022-12-31T05:41:11.712Z,5.62
2022-12-31T05:43:39.302Z,5.88
2022-12-31T05:46:06.863Z,5.98
2022-12-31T05:48:34.383Z,6.59
2022-12-31T05:51:01.911Z,5.31
2022-12-31T05:53:29.672Z,5.38
2022-12-31T05:55:57.248Z,5.51
2022-12-31T05:58:24.767Z,5.15
2022-12-31T06:00:52.745Z,5.00
2022-12-31T06:03:20.400Z,5.05
2022-12-31T06:05:48.013Z,5.06
2022-12-31T06:08:15.623Z,5.01
2022-12-31T06:10:45.822Z,5.09
2022-12-31T06:13:13.389Z,5.22
2022-12-31T06:15:40.937Z,5.34
2022-12-31T06:18:08.789Z,5.20
2022-12-31T06:20:37.807Z,5.12
2022-12-31T06:23:05.863Z,5.02
2022-12-31T06:25:35.684Z,4.98
2022-12-31T06:28:04.432Z,4.92
2022-12-31T06:30:32.441Z,4.91
2022-12-31T06:32:59.953Z,4.87
2022-12-31T06:35:27.463Z,4.93
2022-12-31T06:37:54.999Z,5.00
2022-12-31T06:40:22.531Z,4.99
2022-12-31T06:42:56.034Z,4.93
2022-12-31T06:45:28.262Z,4.93
2022-12-31T06:47:55.807Z,4.77
2022-12-31T06:50:23.359Z,4.72
2022-12-31T06:52:51.223Z,4.60
2022-12-31T06:55:19.096Z,4.23
2022-12-31T06:57:47.189Z,4.34
2022-12-31T07:00:15.413Z,4.26
2022-12-31T07:03:08.056Z,4.50
2022-12-31T07:05:50.664Z,4.51
2022-12-31T07:09:02.750Z,4.58
2022-12-31T07:11:44.893Z,4.64
2022-12-31T07:14:31.099Z,4.63
2022-12-31T07:17:23.506Z,4.99
2022-12-31T07:20:07.768Z,5.09
2022-12-31T07:22:36.713Z,5.05
2022-12-31T07:25:06.612Z,5.18
2022-12-31T07:27:42.843Z,5.10
2022-12-31T07:30:21.463Z,5.20
2022-12-31T07:33:26.183Z,5.18
2022-12-31T07:36:12.443Z,5.25
2022-12-31T07:38:53.182Z,5.60
2022-12-31T07:41:29.715Z,5.55
2022-12-31T07:43:57.889Z,5.48
2022-12-31T07:46:43.030Z,5.50
2022-12-31T07:49:14.213Z,5.66
2022-12-31T07:51:42.280Z,5.71
2022-12-31T07:54:13.874Z,5.74
2022-12-31T07:56:43.082Z,5.87
2022-12-31T07:59:24.563Z,7.07
2022-12-31T08:02:05.094Z,6.45
2022-12-31T08:04:42.503Z,6.45
2022-12-31T08:07:15.681Z,6.54
2022-12-31T08:09:45.942Z,6.18
2022-12-31T08:12:14.244Z,6.17
2022-12-31T08:14:47.227Z,6.10
2022-12-31T08:17:17.871Z,6.14
2022-12-31T08:19:46.289Z,6.29
2022-12-31T08:22:26.108Z,6.30
2022-12-31T08:25:21.212Z,6.31
2022-12-31T08:28:09.068Z,5.99
2022-12-31T08:31:04.363Z,6.18
2022-12-31T08:33:40.364Z,6.47
2022-12-31T08:36:27.776Z,6.41
2022-12-31T08:39:07.668Z,6.47
2022-12-31T08:41:47.762Z,6.59
2022-12-31T08:44:33.691Z,6.69
2022-12-31T08:47:23.091Z,6.62
2022-12-31T08:49:51.004Z,6.83
2022-12-31T08:52:26.814Z,7.04
2022-12-31T08:54:55.020Z,7.16
2022-12-31T08:57:42.567Z,7.12
2022-12-31T09:00:16.906Z,7.17
2022-12-31T09:03:08.683Z,7.22
2022-12-31T09:06:00.468Z,7.11
2022-12-31T09:08:52.652Z,7.28
2022-12-31T09:11:34.011Z,7.37
2022-12-31T09:14:25.811Z,7.47
2022-12-31T09:16:56.562Z,7.36
2022-12-31T09:19:24.134Z,7.03
2022-12-31T09:21:51.995Z,7.19
2022-12-31T09:24:19.834Z,7.05
2022-12-31T09:26:56.152Z,7.30
2022-12-31T09:29:29.739Z,7.24
2022-12-31T09:32:20.880Z,7.45
2022-12-31T09:34:57.280Z,7.46
2022-12-31T09:37:30.965Z,7.71
2022-12-31T09:40:28.662Z,7.88
2022-12-31T09:43:14.560Z,8.34
2022-12-31T09:46:04.872Z,8.69
2022-12-31T09:49:03.676Z,8.94
2022-12-31T09:51:38.239Z,9.07
2022-12-31T09:54:17.641Z,9.06
2022-12-31T09:57:17.336Z,9.24
2022-12-31T10:00:10.968Z,9.14
2022-12-31T10:03:08.650Z,8.98
2022-12-31T10:05:54.631Z,9.28
2022-12-31T10:09:01.563Z,9.40
2022-12-31T10:11:32.031Z,9.64
2022-12-31T10:14:33.441Z,9.84
2022-12-31T10:17:16.744Z,10.29
2022-12-31T10:20:05.752Z,10.16
2022-12-31T10:23:04.636Z,10.02
2022-12-31T10:25:50.392Z,9.81
2022-12-31T10:28:19.052Z,9.81
2022-12-31T10:31:03.113Z,9.90
2022-12-31T10:33:30.627Z,9.69
2022-12-31T10:36:21.040Z,10.04
2022-12-31T10:38:48.489Z,9.50
2022-12-31T10:41:25.029Z,9.49
2022-12-31T10:44:19.889Z,9.63
2022-12-31T10:47:19.407Z,9.77
2022-12-31T10:49:56.060Z,9.61
2022-12-31T10:52:45.492Z,9.77
2022-12-31T10:55:39.374Z,9.62
2022-12-31T10:58:21.991Z,9.66
2022-12-31T11:01:18.801Z,9.84
2022-12-31T11:04:20.454Z,9.76
2022-12-31T11:07:19.634Z,10.01
2022-12-31T11:10:20.401Z,10.05
2022-12-31T11:13:09.401Z,9.95
2022-12-31T11:15:42.038Z,10.00
2022-12-31T11:18:12.800Z,10.28
2022-12-31T11:20:56.049Z,10.57
2022-12-31T11:23:38.457Z,10.70
2022-12-31T11:26:55.425Z,10.76
2022-12-31T11:29:50.793Z,11.02
2022-12-31T11:32:45.281Z,10.99
2022-12-31T11:35:22.271Z,10.99
2022-12-31T11:38:15.017Z,10.60
2022-12-31T11:40:48.076Z,10.86
2022-12-31T11:43:15.459Z,11.27
2022-12-31T11:45:50.724Z,11.17
2022-12-31T11:48:30.578Z,11.44
2022-12-31T11:51:16.550Z,11.27
2022-12-31T11:54:01.231Z,12.06
2022-12-31T11:56:37.412Z,12.15
2022-12-31T11:59:18.848Z,12.14
2022-12-31T12:02:04.440Z,12.34
2022-12-31T12:04:32.022Z,12.22
2022-12-31T12:06:59.723Z,11.80
2022-12-31T12:09:30.228Z,12.24
2022-12-31T12:12:03.655Z,12.88
2022-12-31T12:14:35.273Z,13.19
2022-12-31T12:17:06.523Z,13.62
2022-12-31T12:19:36.106Z,13.61
2022-12-31T12:22:19.891Z,14.72
2022-12-31T12:24:56.936Z,18.35
2022-12-31T12:27:29.274Z,17.75
2022-12-31T12:29:57.486Z,18.38
2022-12-31T12:32:26.954Z,19.56
2022-12-31T12:34:54.461Z,17.47
2022-12-31T12:37:24.745Z,15.78
2022-12-31T12:40:02.327Z,15.55
2022-12-31T12:42:30.452Z,15.15
2022-12-31T12:45:35.637Z,14.14
2022-12-31T12:48:16.653Z,14.06
2022-12-31T12:50:47.470Z,14.15
2022-12-31T12:53:32.696Z,14.95
2022-12-31T12:56:18.875Z,14.37
2022-12-31T12:58:49.423Z,14.07
2022-12-31T13:01:34.956Z,13.65
2022-12-31T13:04:39.768Z,13.41
2022-12-31T13:07:18.988Z,13.35
2022-12-31T13:09:59.795Z,13.17
2022-12-31T13:12:27.323Z,13.08
2022-12-31T13:15:11.043Z,13.07
2022-12-31T13:17:48.289Z,13.01
2022-12-31T13:20:28.890Z,12.79
2022-12-31T13:23:36.274Z,12.95
2022-12-31T13:26:20.532Z,12.79
2022-12-31T13:28:50.824Z,12.63
2022-12-31T13:31:24.876Z,12.71
2022-12-31T13:34:15.491Z,12.24
2022-12-31T13:36:46.027Z,12.09
2022-12-31T13:39:41.905Z,12.09
2022-12-31T13:42:28.765Z,12.32
2022-12-31T13:45:02.375Z,12.34
2022-12-31T13:47:40.864Z,12.33
2022-12-31T13:50:26.842Z,12.59
2022-12-31T13:53:21.469Z,12.51
2022-12-31T13:56:02.058Z,12.44
2022-12-31T13:58:35.318Z,12.13
2022-12-31T14:01:14.775Z,12.17
2022-12-31T14:03:59.394Z,12.29
2022-12-31T14:06:38.729Z,12.59
2022-12-31T14:09:08.114Z,12.48
2022-12-31T14:12:06.356Z,12.52
2022-12-31T14:14:58.356Z,12.22
2022-12-31T14:17:59.867Z,12.34
2022-12-31T14:20:27.573Z,12.11
2022-12-31T14:22:58.020Z,12.10
2022-12-31T14:25:31.772Z,12.09
2022-12-31T14:28:02.577Z,11.98
2022-12-31T14:30:36.186Z,11.96
2022-12-31T14:33:17.423Z,11.92
2022-12-31T14:36:10.761Z,11.89
2022-12-31T14:38:38.507Z,11.78
2022-12-31T14:41:27.256Z,11.68
2022-12-31T14:43:54.694Z,11.69
2022-12-31T14:46:31.187Z,11.65
2022-12-31T14:49:17.025Z,11.58
2022-12-31T14:51:44.947Z,11.36
2022-12-31T14:54:29.362Z,11.34
2022-12-31T14:56:58.005Z,11.29
2022-12-31T14:59:35.649Z,11.17
2022-12-31T15:02:30.179Z,11.16
2022-12-31T15:05:15.845Z,11.15
2022-12-31T15:07:49.267Z,11.24
2022-12-31T15:10:23.584Z,11.14
2022-12-31T15:12:59.996Z,11.17
2022-12-31T15:15:59.626Z,11.07
2022-12-31T15:18:39.252Z,10.90
2022-12-31T15:21:20.710Z,10.88
2022-12-31T15:23:49.834Z,10.73
2022-12-31T15:26:24.653Z,10.59
2022-12-31T15:29:05.348Z,10.68
2022-12-31T15:31:37.562Z,10.67
2022-12-31T15:34:24.306Z,10.64
2022-12-31T15:36:54.839Z,10.48
2022-12-31T15:39:42.778Z,10.47
2022-12-31T15:42:42.402Z,10.26
2022-12-31T15:45:37.412Z,10.39
2022-12-31T15:48:19.487Z,10.37
2022-12-31T15:50:51.261Z,10.32
2022-12-31T15:53:38.538Z,10.38
2022-12-31T15:56:08.451Z,10.23
2022-12-31T15:58:36.707Z,10.31
2022-12-31T16:01:20.996Z,10.06
2022-12-31T16:04:04.344Z,10.14
2022-12-31T16:06:37.023Z,10.28
2022-12-31T16:09:09.968Z,10.33
2022-12-31T16:11:41.767Z,10.25
2022-12-31T16:14:18.496Z,10.18
2022-12-31T16:16:58.332Z,10.15
2022-12-31T16:19:50.057Z,9.92
2022-12-31T16:22:38.606Z,9.65
2022-12-31T16:27:56.088Z,9.37
2022-12-31T16:30:28.073Z,9.28
2022-12-31T16:33:00.608Z,9.08
2022-12-31T16:35:34.128Z,9.03
2022-12-31T16:38:01.519Z,8.91
2022-12-31T16:40:29.361Z,8.81
2022-12-31T16:43:00.219Z,8.88
2022-12-31T16:45:32.107Z,9.03
2022-12-31T16:48:17.262Z,9.00
2022-12-31T16:50:47.733Z,8.94
2022-12-31T16:53:19.643Z,8.67
2022-12-31T16:56:02.036Z,8.63
2022-12-31T16:58:33.453Z,8.55
2022-12-31T17:01:23.265Z,8.31
2022-12-31T17:03:58.326Z,8.32
2022-12-31T17:06:28.160Z,8.60
2022-12-31T17:08:56.069Z,8.49
2022-12-31T17:11:39.256Z,8.54
2022-12-31T17:14:09.684Z,8.55
2022-12-31T17:17:03.480Z,8.54
2022-12-31T17:19:38.884Z,8.58
2022-12-31T17:22:13.832Z,8.42
2022-12-31T17:24:42.248Z,8.57
2022-12-31T17:27:10.448Z,8.56
2022-12-31T17:29:38.864Z,8.62
2022-12-31T17:32:31.220Z,8.64
2022-12-31T17:34:58.836Z,8.57
2022-12-31T17:37:31.485Z,8.50
2022-12-31T17:40:40.560Z,8.50
2022-12-31T17:42:51.429Z,8.43
2022-12-31T17:45:21.533Z,8.43
2022-12-31T17:47:52.000Z,8.46
2022-12-31T17:50:20.970Z,8.48
2022-12-31T17:52:48.908Z,8.36
2022-12-31T17:55:16.588Z,8.32
2022-12-31T17:58:05.959Z,8.16
2022-12-31T18:00:36.777Z,8.07
2022-12-31T18:03:04.481Z,8.01
2022-12-31T18:05:32.050Z,8.01
2022-12-31T18:07:59.648Z,7.96
2022-12-31T18:10:29.492Z,7.86
2022-12-31T18:13:01.849Z,7.76
2022-12-31T18:15:29.422Z,7.55
2022-12-31T18:17:57.121Z,7.43
2022-12-31T18:20:25.748Z,7.46
2022-12-31T18:22:53.330Z,7.35
2022-12-31T18:25:24.031Z,7.23
2022-12-31T18:27:52.533Z,6.97
2022-12-31T18:30:20.094Z,6.80
2022-12-31T18:32:47.783Z,6.72
2022-12-31T18:36:06.422Z,6.62
2022-12-31T18:38:14.720Z,6.51
2022-12-31T18:40:46.469Z,6.55
2022-12-31T18:43:17.427Z,6.59
2022-12-31T18:45:46.392Z,6.34
2022-12-31T18:48:14.550Z,6.38
2022-12-31T18:50:42.319Z,6.44
2022-12-31T18:53:22.264Z,6.58
2022-12-31T18:55:57.571Z,6.58
2022-12-31T18:58:25.053Z,6.53
2022-12-31T19:00:52.750Z,6.50
2022-12-31T19:03:23.333Z,6.41
2022-12-31T19:05:52.136Z,6.50
2022-12-31T19:08:21.771Z,6.37
2022-12-31T19:10:51.442Z,6.59
2022-12-31T19:13:20.201Z,6.50
2022-12-31T19:15:50.223Z,6.52
2022-12-31T19:18:17.953Z,6.48
2022-12-31T19:20:45.967Z,6.38
2022-12-31T19:23:19.577Z,6.08
2022-12-31T19:25:48.018Z,5.89
2022-12-31T19:28:18.325Z,5.85
2022-12-31T19:30:46.695Z,5.88
2022-12-31T19:33:14.947Z,5.83
2022-12-31T19:35:43.393Z,5.82
2022-12-31T19:38:18.933Z,5.87
2022-12-31T19:40:47.461Z,5.76
2022-12-31T19:43:18.875Z,5.74
2022-12-31T19:45:47.276Z,5.85
2022-12-31T19:48:18.469Z,5.77
2022-12-31T19:50:48.818Z,5.78
2022-12-31T19:53:22.333Z,6.02
2022-12-31T19:55:50.638Z,5.89
2022-12-31T19:58:21.431Z,6.05
2022-12-31T20:00:55.674Z,6.01
2022-12-31T20:03:25.083Z,5.99
2022-12-31T20:06:05.623Z,6.08
2022-12-31T20:08:34.547Z,5.94
2022-12-31T20:11:16.010Z,6.09
2022-12-31T20:13:43.763Z,6.13
2022-12-31T20:16:17.173Z,6.24
2022-12-31T20:18:46.800Z,6.21
2022-12-31T20:21:20.068Z,6.21
2022-12-31T20:23:51.865Z,6.08
2022-12-31T20:26:20.366Z,6.15
2022-12-31T20:28:48.694Z,6.20
2022-12-31T20:31:23.527Z,6.13
2022-12-31T20:33:53.656Z,6.06
2022-12-31T20:36:22.257Z,5.93
2022-12-31T20:38:50.329Z,5.66
2022-12-31T20:41:20.462Z,5.57
2022-12-31T20:43:50.968Z,5.69
2022-12-31T20:46:25.807Z,5.65
2022-12-31T20:48:56.063Z,5.55
2022-12-31T20:51:24.482Z,5.62
2022-12-31T20:53:55.478Z,5.51
2022-12-31T20:56:24.774Z,5.61
2022-12-31T20:58:52.343Z,5.62
2022-12-31T21:01:20.684Z,5.66
2022-12-31T21:04:05.964Z,5.74
2022-12-31T21:06:35.705Z,5.51
2022-12-31T21:09:05.838Z,5.42
2022-12-31T21:11:52.235Z,5.35
2022-12-31T21:14:20.065Z,5.44
2022-12-31T21:16:47.659Z,5.37
2022-12-31T21:19:15.810Z,5.34
2022-12-31T21:21:48.109Z,5.32
2022-12-31T21:24:21.801Z,5.17
2022-12-31T21:26:54.364Z,5.05
2022-12-31T21:29:21.894Z,5.01
2022-12-31T21:31:49.775Z,4.88
2022-12-31T21:34:17.348Z,4.93
2022-12-31T21:36:47.023Z,4.85
2022-12-31T21:39:14.669Z,4.84
2022-12-31T21:41:51.091Z,4.90
2022-12-31T21:44:26.964Z,4.88
2022-12-31T21:47:35.410Z,4.99
2022-12-31T21:50:05.307Z,4.98
2022-12-31T21:52:35.072Z,4.84
2022-12-31T21:55:25.292Z,4.89
2022-12-31T22:01:09.546Z,5.13
2022-12-31T22:03:37.276Z,5.07
2022-12-31T22:06:12.792Z,5.09
2022-12-31T22:08:41.810Z,4.86
2022-12-31T22:11:10.695Z,4.83
2022-12-31T22:13:38.604Z,4.74
2022-12-31T22:16:09.809Z,4.54
2022-12-31T22:18:39.332Z,4.53
2022-12-31T22:21:15.698Z,4.60
2022-12-31T22:23:48.630Z,4.58
2022-12-31T22:26:18.451Z,4.55
2022-12-31T22:28:46.625Z,4.56
2022-12-31T22:31:24.575Z,4.75
2022-12-31T22:33:52.560Z,4.83
2022-12-31T22:36:22.523Z,4.85
2022-12-31T22:38:55.696Z,4.77
2022-12-31T22:41:24.583Z,4.42
2022-12-31T22:44:00.503Z,4.23
2022-12-31T22:46:30.692Z,4.11
2022-12-31T22:48:59.677Z,4.18
2022-12-31T22:51:55.963Z,4.10
2022-12-31T22:54:15.198Z,4.36
2022-12-31T22:56:42.806Z,4.33
2022-12-31T22:59:11.808Z,4.32
2022-12-31T23:01:39.466Z,4.34
2022-12-31T23:04:07.063Z,4.31
2022-12-31T23:06:43.379Z,4.32
2022-12-31T23:09:30.975Z,4.27
2022-12-31T23:11:59.186Z,4.45
2022-12-31T23:14:46.434Z,4.53
2022-12-31T23:17:39.180Z,4.61
2022-12-31T23:20:29.461Z,4.29
2022-12-31T23:23:26.341Z,4.21
2022-12-31T23:26:01.223Z,4.23
2022-12-31T23:28:29.014Z,4.16
2022-12-31T23:30:56.653Z,4.19
2022-12-31T23:33:26.121Z,4.15
2022-12-31T23:36:07.499Z,4.17
2022-12-31T23:38:36.923Z,4.06
2022-12-31T23:41:16.048Z,4.10
2022-12-31T23:43:44.170Z,4.21
2022-12-31T23:46:13.032Z,4.31
2022-12-31T23:48:40.802Z,4.29
2022-12-31T23:51:08.481Z,4.28
2022-12-31T23:53:39.695Z,4.18
2022-12-31T23:56:20.872Z,4.20
2022-12-31T23:58:58.138Z,4.14
